createdAt,value
2018-07-24T00:00:29.775Z,937.4
2018-07-24T00:01:29.670Z,937.4
2018-07-24T00:02:29.553Z,937.8
2018-07-24T00:03:29.481Z,937.4
2018-07-24T00:04:29.586Z,937.4
2018-07-24T00:05:31.138Z,937.4
2018-07-24T00:06:31.010Z,937.8
2018-07-24T00:07:30.910Z,937.8
2018-07-24T00:08:31.548Z,937.8
2018-07-24T00:09:31.498Z,937.7
2018-07-24T00:10:31.385Z,935
2018-07-24T00:11:31.279Z,937.3
2018-07-24T00:12:31.232Z,937.7
2018-07-24T00:13:38.030Z,937.7
2018-07-24T00:14:37.915Z,937.7
2018-07-24T00:15:37.818Z,937.7
2018-07-24T00:16:37.718Z,937.6
2018-07-24T00:17:37.608Z,937.6
2018-07-24T00:18:41.589Z,937.6
2018-07-24T00:19:41.465Z,937.2
2018-07-24T00:20:41.366Z,937.4
2018-07-24T00:21:41.259Z,937.7
2018-07-24T00:22:41.213Z,937.7
2018-07-24T00:23:41.111Z,937.6
2018-07-24T00:24:41.008Z,936.1
2018-07-24T00:25:40.924Z,937.6
2018-07-24T00:26:43.636Z,937.7
2018-07-24T00:27:43.536Z,937.7
2018-07-24T00:28:43.877Z,937.7
2018-07-24T00:29:44.017Z,937.3
2018-07-24T00:30:43.910Z,937.3
2018-07-24T00:31:43.847Z,937.7
2018-07-24T00:32:43.743Z,937.7
2018-07-24T00:33:43.676Z,937.6
2018-07-24T00:34:44.268Z,937.7
2018-07-24T00:35:44.161Z,937.6
2018-07-24T00:36:45.729Z,937.7
2018-07-24T00:37:45.647Z,937.6
2018-07-24T00:38:51.973Z,937.6
2018-07-24T00:39:51.885Z,937.6
2018-07-24T00:40:51.777Z,937.2
2018-07-24T00:41:51.674Z,933.6
2018-07-24T00:42:51.566Z,937.1
2018-07-24T00:43:51.462Z,937.2
2018-07-24T00:44:51.586Z,937.5
2018-07-24T00:45:51.485Z,937.2
2018-07-24T00:46:51.620Z,937.6
2018-07-24T00:47:51.515Z,937.6
2018-07-24T00:48:51.851Z,937.5
2018-07-24T00:49:51.741Z,937.6
2018-07-24T00:50:51.674Z,937.5
2018-07-24T00:51:51.576Z,937.5
2018-07-24T00:52:55.128Z,937.1
2018-07-24T00:53:56.043Z,937.1
2018-07-24T00:54:55.945Z,937.1
2018-07-24T00:55:57.083Z,937
2018-07-24T00:56:57.192Z,937
2018-07-24T00:57:57.078Z,937.5
2018-07-24T00:59:00.613Z,937.4
2018-07-24T01:00:01.500Z,937.5
2018-07-24T01:01:01.730Z,937.5
2018-07-24T01:02:01.642Z,936.9
2018-07-24T01:03:01.764Z,937.5
2018-07-24T01:04:01.654Z,937.4
2018-07-24T01:05:01.555Z,937.4
2018-07-24T01:06:01.692Z,937.4
2018-07-24T01:07:01.599Z,937.4
2018-07-24T01:08:01.727Z,937.5
2018-07-24T01:09:02.283Z,936.9
2018-07-24T01:10:03.216Z,936.9
2018-07-24T01:11:03.114Z,937.3
2018-07-24T01:12:03.251Z,937.4
2018-07-24T01:13:03.144Z,937.4
2018-07-24T01:14:03.056Z,937.3
2018-07-24T01:15:02.971Z,937.3
2018-07-24T01:16:03.134Z,937.4
2018-07-24T01:17:03.067Z,937
2018-07-24T01:18:03.001Z,937.4
2018-07-24T01:19:04.354Z,937.4
2018-07-24T01:20:04.261Z,937.4
2018-07-24T01:21:04.145Z,937.3
2018-07-24T01:22:04.079Z,937.4
2018-07-24T01:23:04.234Z,937
2018-07-24T01:24:04.148Z,936.9
2018-07-24T01:25:04.062Z,937.3
2018-07-24T01:26:05.174Z,936.9
2018-07-24T01:27:05.298Z,935.3
2018-07-24T01:28:05.201Z,935.5
2018-07-24T01:29:05.917Z,933
2018-07-24T01:30:06.050Z,937.2
2018-07-24T01:31:05.950Z,937.2
2018-07-24T01:32:05.868Z,937.2
2018-07-24T01:33:06.023Z,937.2
2018-07-24T01:34:09.090Z,936.8
2018-07-24T01:35:09.201Z,937.3
2018-07-24T01:36:09.112Z,937.3
2018-07-24T01:37:09.029Z,936.8
2018-07-24T01:38:09.016Z,937.3
2018-07-24T01:39:12.149Z,937.3
2018-07-24T01:40:12.053Z,937.3
2018-07-24T01:41:11.977Z,937.2
2018-07-24T01:42:11.873Z,937.2
2018-07-24T01:43:12.072Z,937.2
2018-07-24T01:44:11.991Z,937.2
2018-07-24T01:45:11.932Z,937.2
2018-07-24T01:46:14.725Z,936.8
2018-07-24T01:47:14.639Z,936.8
2018-07-24T01:48:14.563Z,937.3
2018-07-24T01:49:14.946Z,937.3
2018-07-24T01:50:14.853Z,937.3
2018-07-24T01:51:14.779Z,936.8
2018-07-24T01:52:17.498Z,937.3
2018-07-24T01:53:17.439Z,936.8
2018-07-24T01:54:17.352Z,936.8
2018-07-24T01:55:17.276Z,937.2
2018-07-24T01:56:17.210Z,937.3
2018-07-24T01:57:18.106Z,937.3
2018-07-24T01:58:18.054Z,937.3
2018-07-24T01:59:24.486Z,937.2
2018-07-24T02:00:24.384Z,937.3
2018-07-24T02:01:24.297Z,937.2
2018-07-24T02:02:27.986Z,937.2
2018-07-24T02:03:27.924Z,937.2
2018-07-24T02:04:27.825Z,937.2
2018-07-24T02:05:27.739Z,937.2
2018-07-24T02:06:27.679Z,935.3
2018-07-24T02:07:27.580Z,934.5
2018-07-24T02:08:27.514Z,937.3
2018-07-24T02:09:31.689Z,936.9
2018-07-24T02:10:31.601Z,937.2
2018-07-24T02:11:34.359Z,936.7
2018-07-24T02:12:34.270Z,937
2018-07-24T02:13:34.190Z,937.2
2018-07-24T02:14:34.125Z,937.2
2018-07-24T02:15:37.584Z,937.2
2018-07-24T02:16:37.532Z,937.3
2018-07-24T02:17:37.478Z,937.3
2018-07-24T02:18:37.390Z,937.2
2018-07-24T02:19:37.996Z,936.8
2018-07-24T02:20:37.912Z,936.8
2018-07-24T02:21:40.430Z,937.2
2018-07-24T02:22:40.329Z,937.2
2018-07-24T02:23:40.223Z,937.2
2018-07-24T02:24:40.623Z,937.1
2018-07-24T02:25:40.540Z,937.2
2018-07-24T02:26:40.695Z,937.2
2018-07-24T02:27:40.608Z,936.8
2018-07-24T02:28:40.513Z,936.7
2018-07-24T02:29:41.343Z,936.7
2018-07-24T02:30:41.243Z,936.6
2018-07-24T02:31:41.320Z,937.1
2018-07-24T02:32:41.503Z,937.1
2018-07-24T02:33:41.397Z,937.2
2018-07-24T02:34:41.309Z,937.1
2018-07-24T02:35:41.224Z,937
2018-07-24T02:36:41.183Z,936.6
2018-07-24T02:37:41.124Z,937.1
2018-07-24T02:38:41.096Z,936.6
2018-07-24T02:39:41.451Z,937.1
2018-07-24T02:40:45.519Z,937.1
2018-07-24T02:41:45.457Z,937.1
2018-07-24T02:42:45.365Z,937.1
2018-07-24T02:43:46.280Z,937.2
2018-07-24T02:44:46.193Z,937.1
2018-07-24T02:45:47.195Z,932.8
2018-07-24T02:46:47.098Z,937.1
2018-07-24T02:47:47.046Z,937.1
2018-07-24T02:48:46.976Z,937.1
2018-07-24T02:49:47.569Z,937.1
2018-07-24T02:50:47.520Z,936.6
2018-07-24T02:51:50.625Z,937.1
2018-07-24T02:52:50.537Z,937.1
2018-07-24T02:53:50.463Z,937
2018-07-24T02:54:50.379Z,937.1
2018-07-24T02:55:50.382Z,937
2018-07-24T02:56:50.385Z,937.1
2018-07-24T02:57:50.534Z,937
2018-07-24T02:58:50.453Z,936.5
2018-07-24T02:59:50.819Z,937
2018-07-24T03:00:50.760Z,937
2018-07-24T03:01:54.470Z,937.1
2018-07-24T03:02:54.402Z,937
2018-07-24T03:03:54.323Z,936.9
2018-07-24T03:04:54.700Z,937
2018-07-24T03:05:54.646Z,937
2018-07-24T03:06:54.573Z,937
2018-07-24T03:07:54.545Z,937
2018-07-24T03:08:54.765Z,937
2018-07-24T03:09:55.377Z,937
2018-07-24T03:10:55.322Z,937
2018-07-24T03:11:55.679Z,937
2018-07-24T03:12:55.591Z,937
2018-07-24T03:13:55.499Z,937
2018-07-24T03:14:55.399Z,937
2018-07-24T03:15:55.312Z,936.9
2018-07-24T03:16:55.311Z,936.9
2018-07-24T03:17:55.260Z,936.9
2018-07-24T03:18:55.396Z,936.4
2018-07-24T03:19:55.776Z,936.9
2018-07-24T03:20:55.698Z,936.9
2018-07-24T03:21:55.610Z,936.9
2018-07-24T03:22:55.792Z,936.8
2018-07-24T03:23:55.734Z,936.9
2018-07-24T03:24:55.656Z,932.5
2018-07-24T03:25:55.575Z,937
2018-07-24T03:26:55.494Z,936.9
2018-07-24T03:27:55.681Z,936.8
2018-07-24T03:28:55.579Z,933
2018-07-24T03:29:55.922Z,936.9
2018-07-24T03:30:55.823Z,936.9
2018-07-24T03:31:55.739Z,936.9
2018-07-24T03:32:56.657Z,937
2018-07-24T03:34:00.329Z,936.9
2018-07-24T03:35:00.453Z,936.9
2018-07-24T03:36:00.366Z,936.9
2018-07-24T03:37:00.280Z,936.9
2018-07-24T03:38:00.423Z,936.9
2018-07-24T03:39:00.353Z,936.4
2018-07-24T03:40:00.850Z,936.8
2018-07-24T03:41:00.807Z,936.8
2018-07-24T03:42:00.720Z,936.8
2018-07-24T03:43:00.897Z,935.7
2018-07-24T03:44:00.803Z,932.5
2018-07-24T03:45:01.107Z,936.8
2018-07-24T03:46:01.030Z,936.9
2018-07-24T03:47:00.938Z,936.8
2018-07-24T03:48:00.870Z,936.8
2018-07-24T03:49:00.782Z,936.8
2018-07-24T03:50:01.394Z,936.7
2018-07-24T03:51:01.308Z,936.8
2018-07-24T03:52:01.224Z,936.8
2018-07-24T03:53:01.169Z,936.8
2018-07-24T03:54:01.385Z,936.7
2018-07-24T03:55:01.333Z,936.7
2018-07-24T03:56:01.227Z,936.7
2018-07-24T03:57:01.133Z,936.7
2018-07-24T03:58:02.048Z,936.8
2018-07-24T03:59:02.006Z,936.7
2018-07-24T04:00:02.407Z,936.7
2018-07-24T04:01:02.326Z,936.7
2018-07-24T04:02:02.309Z,936.7
2018-07-24T04:03:02.269Z,936.7
2018-07-24T04:04:02.180Z,936.7
2018-07-24T04:05:02.120Z,936.8
2018-07-24T04:06:02.032Z,936.7
2018-07-24T04:07:01.943Z,936.7
2018-07-24T04:08:01.883Z,936.2
2018-07-24T04:09:01.821Z,936.8
2018-07-24T04:10:02.252Z,936.7
2018-07-24T04:11:02.159Z,936.7
2018-07-24T04:12:02.065Z,936.7
2018-07-24T04:13:02.245Z,936.7
2018-07-24T04:14:02.191Z,936.7
2018-07-24T04:15:02.114Z,936.7
2018-07-24T04:16:02.254Z,936.7
2018-07-24T04:17:02.167Z,936.7
2018-07-24T04:18:02.067Z,936.7
2018-07-24T04:19:01.982Z,936.7
2018-07-24T04:20:02.404Z,936.6
2018-07-24T04:21:02.307Z,936.7
2018-07-24T04:22:02.217Z,936.7
2018-07-24T04:23:02.128Z,936.7
2018-07-24T04:24:03.100Z,936.7
2018-07-24T04:25:03.052Z,936.7
2018-07-24T04:26:02.955Z,936.6
2018-07-24T04:27:02.872Z,936.7
2018-07-24T04:28:02.795Z,936.7
2018-07-24T04:29:02.728Z,936.6
2018-07-24T04:30:03.129Z,936.7
2018-07-24T04:31:03.235Z,936.6
2018-07-24T04:32:03.200Z,936.6
2018-07-24T04:33:03.124Z,936.5
2018-07-24T04:34:03.054Z,936.6
2018-07-24T04:35:02.985Z,936.1
2018-07-24T04:36:02.888Z,936.1
2018-07-24T04:37:02.833Z,936.5
2018-07-24T04:38:02.765Z,936.6
2018-07-24T04:39:02.684Z,936.6
2018-07-24T04:40:03.344Z,936.6
2018-07-24T04:41:03.310Z,936.6
2018-07-24T04:42:03.248Z,936.6
2018-07-24T04:43:03.155Z,936.6
2018-07-24T04:44:03.070Z,936.6
2018-07-24T04:45:02.984Z,936.6
2018-07-24T04:46:02.918Z,936.6
2018-07-24T04:47:03.852Z,936.6
2018-07-24T04:48:03.765Z,936.6
2018-07-24T04:49:03.904Z,936.1
2018-07-24T04:50:04.305Z,936.6
2018-07-24T04:51:04.254Z,932.5
2018-07-24T04:52:04.183Z,936.6
2018-07-24T04:53:04.090Z,936.6
2018-07-24T04:54:04.031Z,936.1
2018-07-24T04:55:03.949Z,936.5
2018-07-24T04:56:03.866Z,936.1
2018-07-24T04:57:03.779Z,936.6
2018-07-24T04:58:03.694Z,936.6
2018-07-24T04:59:03.626Z,936.6
2018-07-24T05:00:04.018Z,936.5
2018-07-24T05:01:03.932Z,936.5
2018-07-24T05:02:03.892Z,934.9
2018-07-24T05:03:03.825Z,936.5
2018-07-24T05:04:03.739Z,936.5
2018-07-24T05:05:03.657Z,936.6
2018-07-24T05:06:03.566Z,936.5
2018-07-24T05:07:03.506Z,936.1
2018-07-24T05:08:03.456Z,936.6
2018-07-24T05:09:03.370Z,936.5
2018-07-24T05:10:04.085Z,936.5
2018-07-24T05:11:04.011Z,936.6
2018-07-24T05:12:04.015Z,936.6
2018-07-24T05:13:03.911Z,936.5
2018-07-24T05:14:03.813Z,936.5
2018-07-24T05:15:03.711Z,936.5
2018-07-24T05:16:03.624Z,936.5
2018-07-24T05:17:03.541Z,936.6
2018-07-24T05:18:03.537Z,936.6
2018-07-24T05:19:03.453Z,936.5
2018-07-24T05:20:04.043Z,936.5
2018-07-24T05:21:03.956Z,936.6
2018-07-24T05:22:03.858Z,936.6
2018-07-24T05:23:03.808Z,936.6
2018-07-24T05:24:03.744Z,936.3
2018-07-24T05:25:04.891Z,936.7
2018-07-24T05:26:04.846Z,936.6
2018-07-24T05:27:04.761Z,936.5
2018-07-24T05:28:04.676Z,936
2018-07-24T05:29:04.631Z,936.5
2018-07-24T05:30:05.023Z,936.5
2018-07-24T05:31:04.941Z,936.6
2018-07-24T05:32:04.839Z,936.6
2018-07-24T05:33:05.100Z,936.6
2018-07-24T05:34:05.034Z,936.6
2018-07-24T05:35:04.961Z,936.6
2018-07-24T05:36:04.875Z,936.6
2018-07-24T05:37:05.779Z,935.2
2018-07-24T05:38:05.684Z,935.2
2018-07-24T05:39:05.615Z,936.7
2018-07-24T05:40:05.985Z,936.6
2018-07-24T05:41:05.909Z,935.1
2018-07-24T05:42:05.818Z,933.1
2018-07-24T05:43:05.759Z,936.6
2018-07-24T05:44:05.708Z,936.2
2018-07-24T05:45:05.634Z,936.7
2018-07-24T05:46:05.554Z,936.7
2018-07-24T05:47:05.463Z,936.7
2018-07-24T05:48:05.379Z,936.7
2018-07-24T05:49:05.415Z,936.7
2018-07-24T05:50:05.805Z,936.7
2018-07-24T05:51:08.814Z,936.7
2018-07-24T05:52:08.732Z,936.3
2018-07-24T05:53:08.854Z,936.7
2018-07-24T05:54:08.748Z,936.3
2018-07-24T05:55:09.159Z,936.8
2018-07-24T05:56:09.305Z,936.8
2018-07-24T05:57:09.215Z,936.7
2018-07-24T05:58:09.125Z,936.7
2018-07-24T05:59:09.026Z,936.7
2018-07-24T06:00:09.455Z,936.7
2018-07-24T06:01:09.398Z,936.7
2018-07-24T06:02:09.336Z,936.7
2018-07-24T06:03:09.259Z,936.7
2018-07-24T06:04:09.155Z,936.7
2018-07-24T06:05:09.070Z,936.7
2018-07-24T06:06:10.017Z,936.7
2018-07-24T06:07:09.919Z,936.8
2018-07-24T06:08:09.848Z,936.8
2018-07-24T06:09:09.763Z,936.8
2018-07-24T06:10:10.167Z,936.8
2018-07-24T06:11:10.550Z,936.8
2018-07-24T06:12:10.491Z,936.8
2018-07-24T06:13:10.945Z,936.7
2018-07-24T06:14:10.870Z,936.8
2018-07-24T06:15:10.804Z,936.8
2018-07-24T06:16:10.968Z,936.7
2018-07-24T06:17:10.889Z,936.7
2018-07-24T06:18:10.843Z,936.8
2018-07-24T06:19:10.755Z,936.7
2018-07-24T06:20:11.201Z,936.8
2018-07-24T06:21:11.170Z,936.7
2018-07-24T06:22:11.075Z,936.7
2018-07-24T06:23:10.992Z,936.3
2018-07-24T06:24:10.925Z,936.7
2018-07-24T06:25:10.847Z,936.7
2018-07-24T06:26:10.745Z,936.7
2018-07-24T06:27:10.689Z,936.7
2018-07-24T06:28:10.610Z,936.7
2018-07-24T06:29:10.802Z,936.7
2018-07-24T06:30:11.216Z,936.7
2018-07-24T06:31:11.192Z,936.7
2018-07-24T06:32:11.096Z,936.7
2018-07-24T06:33:11.043Z,936.8
2018-07-24T06:34:10.974Z,936.3
2018-07-24T06:35:10.986Z,936.4
2018-07-24T06:36:10.907Z,936.8
2018-07-24T06:37:10.827Z,936.8
2018-07-24T06:38:10.780Z,936.8
2018-07-24T06:39:10.668Z,936.8
2018-07-24T06:40:11.372Z,936.8
2018-07-24T06:41:11.301Z,936.7
2018-07-24T06:42:11.223Z,936.7
2018-07-24T06:43:11.119Z,936.8
2018-07-24T06:44:11.301Z,936.7
2018-07-24T06:45:11.238Z,936.8
2018-07-24T06:46:11.142Z,936.7
2018-07-24T06:47:11.047Z,936.8
2018-07-24T06:48:10.948Z,936.7
2018-07-24T06:49:10.911Z,936.7
2018-07-24T06:50:11.283Z,936.2
2018-07-24T06:51:11.481Z,936.8
2018-07-24T06:52:11.476Z,936.7
2018-07-24T06:53:11.376Z,936.7
2018-07-24T06:54:11.370Z,936.8
2018-07-24T06:55:11.277Z,936.7
2018-07-24T06:56:11.191Z,936.7
2018-07-24T06:57:11.106Z,936.8
2018-07-24T06:58:11.047Z,934
2018-07-24T06:59:10.958Z,936.7
2018-07-24T07:00:11.317Z,936.8
2018-07-24T07:01:11.235Z,936.7
2018-07-24T07:02:11.699Z,936.7
2018-07-24T07:03:11.659Z,936.8
2018-07-24T07:04:11.583Z,936.4
2018-07-24T07:05:12.136Z,936.8
2018-07-24T07:06:12.160Z,936.8
2018-07-24T07:07:12.063Z,936.7
2018-07-24T07:08:11.969Z,936.8
2018-07-24T07:09:11.874Z,936.7
2018-07-24T07:10:12.421Z,936.8
2018-07-24T07:11:12.354Z,936.4
2018-07-24T07:12:12.277Z,936
2018-07-24T07:13:12.677Z,936.7
2018-07-24T07:14:12.645Z,936.7
2018-07-24T07:15:12.580Z,936.3
2018-07-24T07:16:12.695Z,936.8
2018-07-24T07:17:12.669Z,936.8
2018-07-24T07:18:12.573Z,936.6
2018-07-24T07:19:12.497Z,936.7
2018-07-24T07:20:12.844Z,936.5
2018-07-24T07:21:12.772Z,936.8
2018-07-24T07:22:12.688Z,936.8
2018-07-24T07:23:12.578Z,936.8
2018-07-24T07:24:12.484Z,936.8
2018-07-24T07:25:12.387Z,936.7
2018-07-24T07:26:13.006Z,936.7
2018-07-24T07:27:12.920Z,936.8
2018-07-24T07:28:12.828Z,936.7
2018-07-24T07:29:13.333Z,936.8
2018-07-24T07:30:13.846Z,936.7
2018-07-24T07:31:13.773Z,936.7
2018-07-24T07:32:14.135Z,936.7
2018-07-24T07:33:14.112Z,936.8
2018-07-24T07:34:14.025Z,936.7
2018-07-24T07:35:13.930Z,936.7
2018-07-24T07:36:13.848Z,936.8
2018-07-24T07:37:13.796Z,936.8
2018-07-24T07:38:13.728Z,936.7
2018-07-24T07:39:13.931Z,936.2
2018-07-24T07:40:14.420Z,936.7
2018-07-24T07:41:14.337Z,936.7
2018-07-24T07:42:14.246Z,936.8
2018-07-24T07:43:14.161Z,936.7
2018-07-24T07:44:14.068Z,936.7
2018-07-24T07:45:14.240Z,936.7
2018-07-24T07:46:14.148Z,936.7
2018-07-24T07:47:14.053Z,936.6
2018-07-24T07:48:13.992Z,936.8
2018-07-24T07:49:13.898Z,936.6
2018-07-24T07:50:14.260Z,936.4
2018-07-24T07:51:14.184Z,934
2018-07-24T07:52:14.095Z,936.3
2018-07-24T07:53:13.996Z,936.4
2018-07-24T07:54:13.928Z,936.7
2018-07-24T07:55:13.845Z,936.7
2018-07-24T07:56:13.763Z,936.5
2018-07-24T07:57:13.662Z,936.5
2018-07-24T07:58:13.556Z,936.6
2018-07-24T07:59:13.475Z,936.6
2018-07-24T08:00:13.844Z,936.6
2018-07-24T08:01:13.747Z,935.4
2018-07-24T08:02:13.650Z,935.3
2018-07-24T08:03:13.560Z,936.6
2018-07-24T08:04:13.941Z,936.6
2018-07-24T08:05:13.972Z,936.6
2018-07-24T08:06:13.882Z,936.5
2018-07-24T08:07:16.685Z,936.5
2018-07-24T08:08:16.578Z,936.5
2018-07-24T08:09:16.487Z,936.6
2018-07-24T08:10:16.885Z,935.5
2018-07-24T08:11:16.833Z,936.5
2018-07-24T08:12:17.080Z,936.5
2018-07-24T08:13:17.060Z,936.5
2018-07-24T08:14:17.640Z,936.6
2018-07-24T08:15:18.563Z,936.5
2018-07-24T08:16:18.485Z,936.5
2018-07-24T08:17:18.383Z,936.6
2018-07-24T08:18:18.285Z,936.5
2018-07-24T08:19:18.202Z,935.5
2018-07-24T08:20:18.813Z,936.5
2018-07-24T08:21:18.713Z,936.5
2018-07-24T08:22:18.978Z,936.5
2018-07-24T08:23:21.562Z,936
2018-07-24T08:24:21.482Z,933.7
2018-07-24T08:25:21.411Z,936.4
2018-07-24T08:26:21.336Z,936.4
2018-07-24T08:27:21.257Z,936.5
2018-07-24T08:28:21.167Z,936.4
2018-07-24T08:29:21.079Z,936.5
2018-07-24T08:30:21.435Z,936.5
2018-07-24T08:31:21.352Z,936.4
2018-07-24T08:32:21.264Z,936.4
2018-07-24T08:33:21.180Z,936.4
2018-07-24T08:34:21.082Z,936.4
2018-07-24T08:35:21.975Z,936.3
2018-07-24T08:36:21.886Z,936.3
2018-07-24T08:37:21.805Z,936.4
2018-07-24T08:38:21.726Z,936.4
2018-07-24T08:39:21.623Z,936.4
2018-07-24T08:40:21.978Z,936.3
2018-07-24T08:41:21.891Z,936
2018-07-24T08:42:21.821Z,936.3
2018-07-24T08:43:21.727Z,936.3
2018-07-24T08:44:21.649Z,936.3
2018-07-24T08:45:21.549Z,936.3
2018-07-24T08:46:21.454Z,936.3
2018-07-24T08:47:21.384Z,936.3
2018-07-24T08:48:21.289Z,936.3
2018-07-24T08:49:21.206Z,936.3
2018-07-24T08:50:22.618Z,936.3
2018-07-24T08:51:22.541Z,936.2
2018-07-24T08:52:22.760Z,936.3
2018-07-24T08:53:25.681Z,936.3
2018-07-24T08:54:27.813Z,936.3
2018-07-24T08:55:30.448Z,936.3
2018-07-24T08:56:30.523Z,936.2
2018-07-24T08:57:30.445Z,936.3
2018-07-24T08:58:30.350Z,936.2
2018-07-24T08:59:30.276Z,936.3
2018-07-24T09:00:30.853Z,936.2
2018-07-24T09:01:31.801Z,936.1
2018-07-24T09:02:31.747Z,936.2
2018-07-24T09:03:32.299Z,936.2
2018-07-24T09:04:32.296Z,935.8
2018-07-24T09:05:32.222Z,936.2
2018-07-24T09:06:32.126Z,936.2
2018-07-24T09:07:32.034Z,936.2
2018-07-24T09:08:31.972Z,936.2
2018-07-24T09:09:31.885Z,936.2
2018-07-24T09:10:32.251Z,935.8
2018-07-24T09:11:32.155Z,936.2
2018-07-24T09:12:35.104Z,936.2
2018-07-24T09:13:35.023Z,935.8
2018-07-24T09:14:34.952Z,936.2
2018-07-24T09:15:35.267Z,936.2
2018-07-24T09:16:35.262Z,936.2
2018-07-24T09:17:35.183Z,936.1
2018-07-24T09:18:35.097Z,936.2
2018-07-24T09:19:35.016Z,936.2
2018-07-24T09:20:35.374Z,936.2
2018-07-24T09:21:35.276Z,935.8
2018-07-24T09:22:35.195Z,936.2
2018-07-24T09:23:35.118Z,936.2
2018-07-24T09:24:35.032Z,936.2
2018-07-24T09:25:34.938Z,936.2
2018-07-24T09:26:34.856Z,936.2
2018-07-24T09:27:34.754Z,936.2
2018-07-24T09:28:34.669Z,936.2
2018-07-24T09:29:34.577Z,936.1
2018-07-24T09:30:35.138Z,936.1
2018-07-24T09:31:35.083Z,936.2
2018-07-24T09:32:34.993Z,936.2
2018-07-24T09:33:34.936Z,936.2
2018-07-24T09:34:34.847Z,936.1
2018-07-24T09:35:34.752Z,936.2
2018-07-24T09:36:34.668Z,935.8
2018-07-24T09:37:34.567Z,935.8
2018-07-24T09:38:34.474Z,935.7
2018-07-24T09:39:34.386Z,935.7
2018-07-24T09:40:36.332Z,936.1
2018-07-24T09:41:36.345Z,935.7
2018-07-24T09:42:36.291Z,936.1
2018-07-24T09:43:36.232Z,936
2018-07-24T09:44:36.138Z,936.1
2018-07-24T09:45:36.061Z,935.7
2018-07-24T09:46:36.007Z,936.1
2018-07-24T09:47:35.917Z,936.1
2018-07-24T09:48:36.037Z,936.1
2018-07-24T09:49:35.991Z,935.7
2018-07-24T09:50:36.994Z,935.8
2018-07-24T09:51:36.967Z,936.1
2018-07-24T09:52:36.866Z,936.1
2018-07-24T09:53:36.804Z,936.1
2018-07-24T09:54:36.758Z,936
2018-07-24T09:55:36.675Z,936
2018-07-24T09:56:36.592Z,936
2018-07-24T09:57:36.516Z,936
2018-07-24T09:58:36.529Z,935.9
2018-07-24T09:59:36.443Z,936
2018-07-24T10:00:36.828Z,936
2018-07-24T10:01:36.809Z,936
2018-07-24T10:02:36.729Z,935.9
2018-07-24T10:03:36.664Z,936.1
2018-07-24T10:04:36.581Z,936
2018-07-24T10:05:36.516Z,935.7
2018-07-24T10:06:36.462Z,936
2018-07-24T10:07:36.363Z,936
2018-07-24T10:08:36.278Z,936
2018-07-24T10:09:36.194Z,935.9
2018-07-24T10:10:36.632Z,935.9
2018-07-24T10:11:36.544Z,935.4
2018-07-24T10:12:36.761Z,935.9
2018-07-24T10:13:36.723Z,936
2018-07-24T10:14:36.618Z,935.9
2018-07-24T10:15:36.565Z,935.9
2018-07-24T10:16:37.243Z,935.9
2018-07-24T10:17:37.259Z,936
2018-07-24T10:18:37.173Z,935.9
2018-07-24T10:19:37.118Z,935.4
2018-07-24T10:20:38.516Z,935.8
2018-07-24T10:21:38.419Z,935.8
2018-07-24T10:22:38.593Z,935.8
2018-07-24T10:23:38.548Z,935.8
2018-07-24T10:24:38.458Z,935.8
2018-07-24T10:25:38.369Z,935.8
2018-07-24T10:26:38.513Z,935.8
2018-07-24T10:27:38.420Z,935.8
2018-07-24T10:28:38.320Z,935.8
2018-07-24T10:29:41.019Z,935.7
2018-07-24T10:30:41.396Z,935.3
2018-07-24T10:31:41.337Z,935.8
2018-07-24T10:32:41.265Z,935.7
2018-07-24T10:33:41.172Z,935.7
2018-07-24T10:34:41.075Z,935.7
2018-07-24T10:35:40.984Z,935.7
2018-07-24T10:36:40.908Z,935.7
2018-07-24T10:37:40.836Z,935.7
2018-07-24T10:38:40.748Z,934.6
2018-07-24T10:39:40.656Z,934.5
2018-07-24T10:40:41.012Z,935.8
2018-07-24T10:41:40.924Z,935.7
2018-07-24T10:42:40.859Z,935.3
2018-07-24T10:43:40.793Z,935.7
2018-07-24T10:44:40.702Z,935.6
2018-07-24T10:45:40.604Z,935.7
2018-07-24T10:46:46.071Z,935.6
2018-07-24T10:47:48.755Z,935.6
2018-07-24T10:48:48.655Z,935.6
2018-07-24T10:49:48.574Z,935.6
2018-07-24T10:50:48.938Z,935.6
2018-07-24T10:51:48.907Z,935.6
2018-07-24T10:52:49.882Z,935.6
2018-07-24T10:53:49.817Z,935.6
2018-07-24T10:54:49.723Z,935.6
2018-07-24T10:55:49.653Z,935.5
2018-07-24T10:56:49.598Z,935.5
2018-07-24T10:57:49.492Z,935.5
2018-07-24T10:58:49.420Z,935.5
2018-07-24T10:59:49.318Z,935.5
2018-07-24T11:00:49.910Z,935.5
2018-07-24T11:01:49.819Z,934.9
2018-07-24T11:02:49.725Z,935.3
2018-07-24T11:03:49.651Z,935.5
2018-07-24T11:04:49.564Z,935.5
2018-07-24T11:05:49.464Z,935.4
2018-07-24T11:06:49.374Z,935.4
2018-07-24T11:07:49.310Z,935.4
2018-07-24T11:08:49.452Z,935.4
2018-07-24T11:09:49.360Z,932.2
2018-07-24T11:10:49.956Z,935.3
2018-07-24T11:11:49.867Z,935
2018-07-24T11:12:49.775Z,935
2018-07-24T11:13:52.347Z,935
2018-07-24T11:14:52.278Z,935.4
2018-07-24T11:15:52.198Z,935.4
2018-07-24T11:16:52.107Z,935.4
2018-07-24T11:17:53.022Z,935.3
2018-07-24T11:18:53.194Z,935
2018-07-24T11:19:53.097Z,935
2018-07-24T11:20:53.484Z,935.4
2018-07-24T11:21:53.573Z,935.4
2018-07-24T11:22:55.750Z,935.4
2018-07-24T11:23:55.906Z,935.3
2018-07-24T11:24:55.800Z,935
2018-07-24T11:25:55.746Z,935.3
2018-07-24T11:26:55.662Z,935.3
2018-07-24T11:27:55.566Z,935.4
2018-07-24T11:28:55.460Z,935.3
2018-07-24T11:29:55.410Z,935.3
2018-07-24T11:30:55.759Z,935
2018-07-24T11:31:55.660Z,935.3
2018-07-24T11:32:55.853Z,935.3
2018-07-24T11:33:55.787Z,935.4
2018-07-24T11:34:55.741Z,935.3
2018-07-24T11:35:57.456Z,934.9
2018-07-24T11:36:57.461Z,935.3
2018-07-24T11:37:57.355Z,935.3
2018-07-24T11:38:57.266Z,935.4
2018-07-24T11:39:57.202Z,935.3
2018-07-24T11:40:57.887Z,934.8
2018-07-24T11:41:57.804Z,935.3
2018-07-24T11:42:57.709Z,935.3
2018-07-24T11:43:57.907Z,935.3
2018-07-24T11:44:57.842Z,935.2
2018-07-24T11:45:57.758Z,935.2
2018-07-24T11:46:57.662Z,935.3
2018-07-24T11:47:57.559Z,935.3
2018-07-24T11:48:58.468Z,935.2
2018-07-24T11:49:58.398Z,935.2
2018-07-24T11:50:58.766Z,935.2
2018-07-24T11:51:59.182Z,935.2
2018-07-24T11:52:59.087Z,935.2
2018-07-24T11:53:58.985Z,935.2
2018-07-24T11:54:58.906Z,935.2
2018-07-24T11:55:58.841Z,935.2
2018-07-24T11:56:58.752Z,935.2
2018-07-24T11:57:58.692Z,934.7
2018-07-24T11:58:58.659Z,935.1
2018-07-24T11:59:58.566Z,935.2
2018-07-24T12:00:58.961Z,935.1
2018-07-24T12:01:58.866Z,935.2
2018-07-24T12:02:58.789Z,935.1
2018-07-24T12:03:58.697Z,935.2
2018-07-24T12:04:58.619Z,935.1
2018-07-24T12:05:58.564Z,935.1
2018-07-24T12:06:58.478Z,935.1
2018-07-24T12:07:59.080Z,934.7
2018-07-24T12:08:59.036Z,935.2
2018-07-24T12:09:58.956Z,935.1
2018-07-24T12:10:59.319Z,935.1
2018-07-24T12:11:59.232Z,935.1
2018-07-24T12:12:59.133Z,935.1
2018-07-24T12:13:59.044Z,935.1
2018-07-24T12:14:59.709Z,935
2018-07-24T12:15:59.873Z,935.1
2018-07-24T12:16:59.783Z,935.1
2018-07-24T12:17:59.700Z,935.1
2018-07-24T12:18:59.600Z,935
2018-07-24T12:19:59.534Z,935.1
2018-07-24T12:21:02.681Z,935
2018-07-24T12:22:02.586Z,935
2018-07-24T12:23:02.518Z,935
2018-07-24T12:24:02.439Z,935
2018-07-24T12:25:02.336Z,935.1
2018-07-24T12:26:02.260Z,934.6
2018-07-24T12:27:02.452Z,935.1
2018-07-24T12:28:02.364Z,935
2018-07-24T12:29:02.271Z,935
2018-07-24T12:30:02.203Z,934.8
2018-07-24T12:31:03.510Z,935.1
2018-07-24T12:32:03.446Z,935
2018-07-24T12:33:03.351Z,931.7
2018-07-24T12:34:03.286Z,934.9
2018-07-24T12:35:03.229Z,935
2018-07-24T12:36:04.049Z,935
2018-07-24T12:37:04.055Z,935
2018-07-24T12:38:03.972Z,935
2018-07-24T12:39:09.812Z,935
2018-07-24T12:40:09.712Z,935.1
2018-07-24T12:41:10.052Z,934.6
2018-07-24T12:42:13.046Z,934.6
2018-07-24T12:43:12.957Z,935
2018-07-24T12:44:12.900Z,935
2018-07-24T12:45:12.833Z,935
2018-07-24T12:46:12.735Z,935
2018-07-24T12:47:12.922Z,935
2018-07-24T12:48:12.838Z,935
2018-07-24T12:49:13.735Z,935
2018-07-24T12:50:13.660Z,935
2018-07-24T12:51:15.056Z,934.2
2018-07-24T12:52:14.992Z,935
2018-07-24T12:53:14.910Z,935
2018-07-24T12:54:14.814Z,935
2018-07-24T12:55:14.733Z,934.9
2018-07-24T12:56:14.639Z,935
2018-07-24T12:57:14.541Z,935
2018-07-24T12:58:14.687Z,932.5
2018-07-24T12:59:14.625Z,935.1
2018-07-24T13:00:18.576Z,934.6
2018-07-24T13:01:18.932Z,935